sensor_id;sensor_type;location;lat;lon;timestamp;temperature;humidity
73360;DHT22;63092;43.582;19.528;2022-11-20T00:01:16;10.50;99.90
73360;DHT22;63092;43.582;19.528;2022-11-20T00:03:43;10.50;99.90
73360;DHT22;63092;43.582;19.528;2022-11-20T00:06:13;10.50;99.90
73360;DHT22;63092;43.582;19.528;2022-11-20T00:08:39;10.50;99.90
73360;DHT22;63092;43.582;19.528;2022-11-20T00:11:11;10.60;99.90
73360;DHT22;63092;43.582;19.528;2022-11-20T00:13:37;10.50;99.90
73360;DHT22;63092;43.582;19.528;2022-11-20T00:16:05;10.40;99.90
73360;DHT22;63092;43.582;19.528;2022-11-20T00:18:33;10.40;99.90
73360;DHT22;63092;43.582;19.528;2022-11-20T00:21:09;10.30;99.90
73360;DHT22;63092;43.582;19.528;2022-11-20T00:23:35;10.40;99.90
73360;DHT22;63092;43.582;19.528;2022-11-20T00:26:03;10.40;99.90
73360;DHT22;63092;43.582;19.528;2022-11-20T00:28:29;10.40;99.90
73360;DHT22;63092;43.582;19.528;2022-11-20T00:31:04;10.40;99.90
73360;DHT22;63092;43.582;19.528;2022-11-20T00:33:30;10.50;99.90
73360;DHT22;63092;43.582;19.528;2022-11-20T00:36:06;10.50;99.90
73360;DHT22;63092;43.582;19.528;2022-11-20T00:38:33;10.50;99.90
73360;DHT22;63092;43.582;19.528;2022-11-20T00:41:05;10.60;99.90
73360;DHT22;63092;43.582;19.528;2022-11-20T00:43:32;10.60;99.90
73360;DHT22;63092;43.582;19.528;2022-11-20T00:45:58;10.60;99.90
73360;DHT22;63092;43.582;19.528;2022-11-20T00:48:24;10.60;99.90
73360;DHT22;63092;43.582;19.528;2022-11-20T00:50:50;10.60;99.90
73360;DHT22;63092;43.582;19.528;2022-11-20T00:53:16;10.60;99.90
73360;DHT22;63092;43.582;19.528;2022-11-20T00:55:41;10.60;99.90
73360;DHT22;63092;43.582;19.528;2022-11-20T00:58:07;10.60;99.90
73360;DHT22;63092;43.582;19.528;2022-11-20T01:00:33;10.60;99.90
73360;DHT22;63092;43.582;19.528;2022-11-20T01:02:59;10.60;99.90
73360;DHT22;63092;43.582;19.528;2022-11-20T01:05:25;10.50;99.90
73360;DHT22;63092;43.582;19.528;2022-11-20T01:07:50;10.50;99.90
73360;DHT22;63092;43.582;19.528;2022-11-20T01:10:16;10.50;99.90
73360;DHT22;63092;43.582;19.528;2022-11-20T01:12:42;10.40;99.90
73360;DHT22;63092;43.582;19.528;2022-11-20T01:15:08;10.40;99.90
73360;DHT22;63092;43.582;19.528;2022-11-20T01:17:34;10.40;99.90
73360;DHT22;63092;43.582;19.528;2022-11-20T01:20:00;10.50;99.90
73360;DHT22;63092;43.582;19.528;2022-11-20T01:22:25;10.50;99.90
73360;DHT22;63092;43.582;19.528;2022-11-20T01:24:51;10.50;99.90
73360;DHT22;63092;43.582;19.528;2022-11-20T01:27:17;10.50;99.90
73360;DHT22;63092;43.582;19.528;2022-11-20T01:29:42;10.50;99.90
73360;DHT22;63092;43.582;19.528;2022-11-20T01:32:08;10.50;99.90
73360;DHT22;63092;43.582;19.528;2022-11-20T01:34:34;10.50;99.90
73360;DHT22;63092;43.582;19.528;2022-11-20T01:37:00;10.50;99.90
73360;DHT22;63092;43.582;19.528;2022-11-20T01:39:26;10.60;99.90
73360;DHT22;63092;43.582;19.528;2022-11-20T01:41:53;10.60;99.90
73360;DHT22;63092;43.582;19.528;2022-11-20T01:47:41;10.60;99.90
73360;DHT22;63092;43.582;19.528;2022-11-20T01:50:17;10.60;99.90
73360;DHT22;63092;43.582;19.528;2022-11-20T01:53:07;10.70;99.90
73360;DHT22;63092;43.582;19.528;2022-11-20T01:55:40;10.70;99.90
73360;DHT22;63092;43.582;19.528;2022-11-20T01:58:06;10.70;99.90
73360;DHT22;63092;43.582;19.528;2022-11-20T02:00:33;10.80;99.90
73360;DHT22;63092;43.582;19.528;2022-11-20T02:03:01;10.80;99.90
73360;DHT22;63092;43.582;19.528;2022-11-20T02:05:35;10.80;99.90
73360;DHT22;63092;43.582;19.528;2022-11-20T02:08:04;10.70;99.90
73360;DHT22;63092;43.582;19.528;2022-11-20T02:10:31;10.60;99.90
73360;DHT22;63092;43.582;19.528;2022-11-20T02:12:57;10.60;99.90
73360;DHT22;63092;43.582;19.528;2022-11-20T02:15:42;10.70;99.90
73360;DHT22;63092;43.582;19.528;2022-11-20T02:18:09;10.60;99.90
73360;DHT22;63092;43.582;19.528;2022-11-20T02:20:36;10.60;99.90
73360;DHT22;63092;43.582;19.528;2022-11-20T02:23:11;10.70;99.90
73360;DHT22;63092;43.582;19.528;2022-11-20T02:25:37;10.70;99.90
73360;DHT22;63092;43.582;19.528;2022-11-20T02:28:05;10.70;99.90
73360;DHT22;63092;43.582;19.528;2022-11-20T02:30:31;10.60;99.90
73360;DHT22;63092;43.582;19.528;2022-11-20T02:32:58;10.50;99.90
73360;DHT22;63092;43.582;19.528;2022-11-20T02:37:52;10.40;99.90
73360;DHT22;63092;43.582;19.528;2022-11-20T02:40:18;10.30;99.90
73360;DHT22;63092;43.582;19.528;2022-11-20T02:42:44;10.20;99.90
73360;DHT22;63092;43.582;19.528;2022-11-20T02:45:10;10.20;99.90
73360;DHT22;63092;43.582;19.528;2022-11-20T02:47:36;10.20;99.90
73360;DHT22;63092;43.582;19.528;2022-11-20T02:50:03;10.20;99.90
73360;DHT22;63092;43.582;19.528;2022-11-20T02:52:30;10.30;99.90
73360;DHT22;63092;43.582;19.528;2022-11-20T02:54:55;10.30;99.90
73360;DHT22;63092;43.582;19.528;2022-11-20T02:57:21;10.30;99.90
73360;DHT22;63092;43.582;19.528;2022-11-20T02:59:47;10.30;99.90
73360;DHT22;63092;43.582;19.528;2022-11-20T03:02:13;10.30;99.90
73360;DHT22;63092;43.582;19.528;2022-11-20T03:04:38;10.30;99.90
73360;DHT22;63092;43.582;19.528;2022-11-20T03:07:04;10.30;99.90
73360;DHT22;63092;43.582;19.528;2022-11-20T03:09:30;10.40;99.90
73360;DHT22;63092;43.582;19.528;2022-11-20T03:11:56;10.30;99.90
73360;DHT22;63092;43.582;19.528;2022-11-20T03:14:22;10.30;99.90
73360;DHT22;63092;43.582;19.528;2022-11-20T03:16:47;10.30;99.90
73360;DHT22;63092;43.582;19.528;2022-11-20T03:19:13;10.30;99.90
73360;DHT22;63092;43.582;19.528;2022-11-20T03:21:39;10.40;99.90
73360;DHT22;63092;43.582;19.528;2022-11-20T03:24:05;10.30;99.90
73360;DHT22;63092;43.582;19.528;2022-11-20T03:26:31;10.30;99.90
73360;DHT22;63092;43.582;19.528;2022-11-20T03:28:59;10.30;99.90
73360;DHT22;63092;43.582;19.528;2022-11-20T03:31:29;10.40;99.90
73360;DHT22;63092;43.582;19.528;2022-11-20T03:33:58;10.30;99.90
73360;DHT22;63092;43.582;19.528;2022-11-20T03:36:25;10.30;99.90
73360;DHT22;63092;43.582;19.528;2022-11-20T03:38:52;10.20;99.90
73360;DHT22;63092;43.582;19.528;2022-11-20T03:41:23;10.10;99.90
73360;DHT22;63092;43.582;19.528;2022-11-20T03:43:53;10.10;99.90
73360;DHT22;63092;43.582;19.528;2022-11-20T03:46:20;10.00;99.90
73360;DHT22;63092;43.582;19.528;2022-11-20T03:48:46;10.00;99.90
73360;DHT22;63092;43.582;19.528;2022-11-20T03:51:14;10.00;99.90
73360;DHT22;63092;43.582;19.528;2022-11-20T03:53:42;10.00;99.90
73360;DHT22;63092;43.582;19.528;2022-11-20T03:56:10;10.00;99.90
73360;DHT22;63092;43.582;19.528;2022-11-20T03:58:37;9.90;99.90
73360;DHT22;63092;43.582;19.528;2022-11-20T04:01:11;9.90;99.90
73360;DHT22;63092;43.582;19.528;2022-11-20T04:03:38;9.90;99.90
73360;DHT22;63092;43.582;19.528;2022-11-20T04:06:07;9.80;99.90
73360;DHT22;63092;43.582;19.528;2022-11-20T04:08:33;9.80;99.90
73360;DHT22;63092;43.582;19.528;2022-11-20T04:11:31;9.80;99.90
73360;DHT22;63092;43.582;19.528;2022-11-20T04:14:03;9.80;99.90
73360;DHT22;63092;43.582;19.528;2022-11-20T04:16:30;9.80;99.90
73360;DHT22;63092;43.582;19.528;2022-11-20T04:18:58;9.80;99.90
73360;DHT22;63092;43.582;19.528;2022-11-20T04:21:25;9.80;99.90
73360;DHT22;63092;43.582;19.528;2022-11-20T04:23:52;9.80;99.90
73360;DHT22;63092;43.582;19.528;2022-11-20T04:26:22;9.80;99.90
73360;DHT22;63092;43.582;19.528;2022-11-20T04:28:48;9.90;99.90
73360;DHT22;63092;43.582;19.528;2022-11-20T04:31:16;9.90;99.90
73360;DHT22;63092;43.582;19.528;2022-11-20T04:33:43;9.90;99.90
73360;DHT22;63092;43.582;19.528;2022-11-20T04:36:12;9.90;99.90
73360;DHT22;63092;43.582;19.528;2022-11-20T04:38:39;9.90;99.90
73360;DHT22;63092;43.582;19.528;2022-11-20T04:41:06;9.90;99.90
73360;DHT22;63092;43.582;19.528;2022-11-20T04:43:33;9.90;99.90
73360;DHT22;63092;43.582;19.528;2022-11-20T04:46:00;9.90;99.90
73360;DHT22;63092;43.582;19.528;2022-11-20T04:48:27;9.90;99.90
73360;DHT22;63092;43.582;19.528;2022-11-20T04:50:53;9.90;99.90
73360;DHT22;63092;43.582;19.528;2022-11-20T04:53:21;9.90;99.90
73360;DHT22;63092;43.582;19.528;2022-11-20T04:55:47;9.90;99.90
73360;DHT22;63092;43.582;19.528;2022-11-20T04:58:13;9.80;99.90
73360;DHT22;63092;43.582;19.528;2022-11-20T05:00:39;9.80;99.90
73360;DHT22;63092;43.582;19.528;2022-11-20T05:03:05;9.80;99.90
73360;DHT22;63092;43.582;19.528;2022-11-20T05:05:32;9.70;99.90
73360;DHT22;63092;43.582;19.528;2022-11-20T05:07:58;9.70;99.90
73360;DHT22;63092;43.582;19.528;2022-11-20T05:10:27;9.80;99.90
73360;DHT22;63092;43.582;19.528;2022-11-20T05:12:53;9.70;99.90
73360;DHT22;63092;43.582;19.528;2022-11-20T05:15:19;9.70;99.90
73360;DHT22;63092;43.582;19.528;2022-11-20T05:17:48;9.70;99.90
73360;DHT22;63092;43.582;19.528;2022-11-20T05:20:14;9.70;99.90
73360;DHT22;63092;43.582;19.528;2022-11-20T05:22:40;9.70;99.90
73360;DHT22;63092;43.582;19.528;2022-11-20T05:25:06;9.70;99.90
73360;DHT22;63092;43.582;19.528;2022-11-20T05:27:31;9.70;99.90
73360;DHT22;63092;43.582;19.528;2022-11-20T05:29:57;9.80;99.90
73360;DHT22;63092;43.582;19.528;2022-11-20T05:32:23;9.80;99.90
73360;DHT22;63092;43.582;19.528;2022-11-20T05:34:51;9.90;99.90
73360;DHT22;63092;43.582;19.528;2022-11-20T05:37:17;9.90;99.90
73360;DHT22;63092;43.582;19.528;2022-11-20T05:39:42;10.00;99.90
73360;DHT22;63092;43.582;19.528;2022-11-20T05:42:08;10.00;99.90
73360;DHT22;63092;43.582;19.528;2022-11-20T05:44:52;10.00;99.90
73360;DHT22;63092;43.582;19.528;2022-11-20T05:47:18;10.10;99.90
73360;DHT22;63092;43.582;19.528;2022-11-20T05:49:44;10.10;99.90
73360;DHT22;63092;43.582;19.528;2022-11-20T05:52:09;9.80;99.90
73360;DHT22;63092;43.582;19.528;2022-11-20T05:54:35;9.90;99.90
73360;DHT22;63092;43.582;19.528;2022-11-20T05:57:01;9.90;99.90
73360;DHT22;63092;43.582;19.528;2022-11-20T05:59:27;9.80;99.90
73360;DHT22;63092;43.582;19.528;2022-11-20T06:01:52;9.80;99.90
73360;DHT22;63092;43.582;19.528;2022-11-20T06:04:18;9.80;99.90
73360;DHT22;63092;43.582;19.528;2022-11-20T06:06:44;9.70;99.90
73360;DHT22;63092;43.582;19.528;2022-11-20T06:09:09;9.70;99.90
73360;DHT22;63092;43.582;19.528;2022-11-20T06:11:35;9.70;99.90
73360;DHT22;63092;43.582;19.528;2022-11-20T06:14:01;9.70;99.90
73360;DHT22;63092;43.582;19.528;2022-11-20T06:16:26;9.70;99.90
73360;DHT22;63092;43.582;19.528;2022-11-20T06:18:52;9.70;99.90
73360;DHT22;63092;43.582;19.528;2022-11-20T06:21:20;9.60;99.90
73360;DHT22;63092;43.582;19.528;2022-11-20T06:23:47;9.60;99.90
73360;DHT22;63092;43.582;19.528;2022-11-20T06:26:15;9.60;99.90
73360;DHT22;63092;43.582;19.528;2022-11-20T06:28:41;9.70;99.90
73360;DHT22;63092;43.582;19.528;2022-11-20T06:31:07;9.70;99.90
73360;DHT22;63092;43.582;19.528;2022-11-20T06:33:35;9.70;99.90
73360;DHT22;63092;43.582;19.528;2022-11-20T06:36:01;9.70;99.90
73360;DHT22;63092;43.582;19.528;2022-11-20T06:38:27;9.80;99.90
73360;DHT22;63092;43.582;19.528;2022-11-20T06:40:54;9.90;99.90
73360;DHT22;63092;43.582;19.528;2022-11-20T06:43:20;10.00;99.90
73360;DHT22;63092;43.582;19.528;2022-11-20T06:45:46;10.00;99.90
73360;DHT22;63092;43.582;19.528;2022-11-20T06:48:11;10.00;99.90
73360;DHT22;63092;43.582;19.528;2022-11-20T06:50:37;10.10;99.90
73360;DHT22;63092;43.582;19.528;2022-11-20T06:53:04;10.10;99.90
73360;DHT22;63092;43.582;19.528;2022-11-20T06:55:30;10.10;99.90
73360;DHT22;63092;43.582;19.528;2022-11-20T06:57:56;10.20;99.90
73360;DHT22;63092;43.582;19.528;2022-11-20T07:00:22;10.10;99.90
73360;DHT22;63092;43.582;19.528;2022-11-20T07:02:48;9.90;99.90
73360;DHT22;63092;43.582;19.528;2022-11-20T07:05:13;9.90;99.90
73360;DHT22;63092;43.582;19.528;2022-11-20T07:07:39;9.90;99.90
73360;DHT22;63092;43.582;19.528;2022-11-20T07:10:05;9.80;99.90
73360;DHT22;63092;43.582;19.528;2022-11-20T07:12:31;9.70;99.90
73360;DHT22;63092;43.582;19.528;2022-11-20T07:14:57;9.70;99.90
73360;DHT22;63092;43.582;19.528;2022-11-20T07:17:22;9.60;99.90
73360;DHT22;63092;43.582;19.528;2022-11-20T07:19:48;9.60;99.90
73360;DHT22;63092;43.582;19.528;2022-11-20T07:22:14;9.70;99.90
73360;DHT22;63092;43.582;19.528;2022-11-20T07:24:39;9.80;99.90
73360;DHT22;63092;43.582;19.528;2022-11-20T07:27:05;9.90;99.90
73360;DHT22;63092;43.582;19.528;2022-11-20T07:29:31;9.90;99.90
73360;DHT22;63092;43.582;19.528;2022-11-20T07:31:56;9.80;99.90
73360;DHT22;63092;43.582;19.528;2022-11-20T07:34:22;9.90;99.90
73360;DHT22;63092;43.582;19.528;2022-11-20T07:36:48;9.80;99.90
73360;DHT22;63092;43.582;19.528;2022-11-20T07:39:14;9.80;99.90
73360;DHT22;63092;43.582;19.528;2022-11-20T07:41:40;9.80;99.90
73360;DHT22;63092;43.582;19.528;2022-11-20T07:44:05;9.80;99.90
73360;DHT22;63092;43.582;19.528;2022-11-20T07:46:31;9.80;99.90
73360;DHT22;63092;43.582;19.528;2022-11-20T07:48:57;9.80;99.90
73360;DHT22;63092;43.582;19.528;2022-11-20T07:51:23;9.80;99.90
73360;DHT22;63092;43.582;19.528;2022-11-20T07:53:51;9.80;99.90
73360;DHT22;63092;43.582;19.528;2022-11-20T07:56:17;9.90;99.90
73360;DHT22;63092;43.582;19.528;2022-11-20T07:58:43;9.90;99.90
73360;DHT22;63092;43.582;19.528;2022-11-20T08:01:09;10.00;99.90
73360;DHT22;63092;43.582;19.528;2022-11-20T08:03:35;9.90;99.90
73360;DHT22;63092;43.582;19.528;2022-11-20T08:06:03;9.90;99.90
73360;DHT22;63092;43.582;19.528;2022-11-20T08:08:29;9.90;99.90
73360;DHT22;63092;43.582;19.528;2022-11-20T08:10:57;9.70;99.90
73360;DHT22;63092;43.582;19.528;2022-11-20T08:13:43;9.70;99.90
73360;DHT22;63092;43.582;19.528;2022-11-20T08:16:29;9.80;99.90
73360;DHT22;63092;43.582;19.528;2022-11-20T08:18:55;9.80;99.90
73360;DHT22;63092;43.582;19.528;2022-11-20T08:21:21;9.90;99.90
73360;DHT22;63092;43.582;19.528;2022-11-20T08:23:47;9.90;99.90
73360;DHT22;63092;43.582;19.528;2022-11-20T08:26:12;9.90;99.90
73360;DHT22;63092;43.582;19.528;2022-11-20T08:28:38;10.00;99.90
73360;DHT22;63092;43.582;19.528;2022-11-20T08:31:04;10.00;99.90
73360;DHT22;63092;43.582;19.528;2022-11-20T08:33:30;10.00;99.90
73360;DHT22;63092;43.582;19.528;2022-11-20T08:36:02;10.00;99.90
73360;DHT22;63092;43.582;19.528;2022-11-20T08:38:29;10.10;99.90
73360;DHT22;63092;43.582;19.528;2022-11-20T08:41:03;10.20;99.90
73360;DHT22;63092;43.582;19.528;2022-11-20T08:43:47;10.20;99.90
73360;DHT22;63092;43.582;19.528;2022-11-20T08:46:13;10.20;99.90
73360;DHT22;63092;43.582;19.528;2022-11-20T08:48:39;10.20;99.90
73360;DHT22;63092;43.582;19.528;2022-11-20T08:51:05;10.20;99.90
73360;DHT22;63092;43.582;19.528;2022-11-20T08:53:31;10.20;99.90
73360;DHT22;63092;43.582;19.528;2022-11-20T08:55:57;10.40;99.90
73360;DHT22;63092;43.582;19.528;2022-11-20T08:58:23;10.50;99.90
73360;DHT22;63092;43.582;19.528;2022-11-20T09:00:49;10.50;99.90
73360;DHT22;63092;43.582;19.528;2022-11-20T09:03:15;10.50;99.90
73360;DHT22;63092;43.582;19.528;2022-11-20T09:05:41;10.60;99.90
73360;DHT22;63092;43.582;19.528;2022-11-20T09:08:08;10.60;99.90
73360;DHT22;63092;43.582;19.528;2022-11-20T09:10:34;10.60;99.90
73360;DHT22;63092;43.582;19.528;2022-11-20T09:13:00;10.70;99.90
73360;DHT22;63092;43.582;19.528;2022-11-20T09:15:25;10.80;99.90
73360;DHT22;63092;43.582;19.528;2022-11-20T09:17:58;10.60;99.90
73360;DHT22;63092;43.582;19.528;2022-11-20T09:20:25;10.60;99.90
73360;DHT22;63092;43.582;19.528;2022-11-20T09:22:51;10.60;99.90
73360;DHT22;63092;43.582;19.528;2022-11-20T09:25:17;10.60;99.90
73360;DHT22;63092;43.582;19.528;2022-11-20T09:27:43;10.60;99.90
73360;DHT22;63092;43.582;19.528;2022-11-20T09:30:12;10.60;99.90
73360;DHT22;63092;43.582;19.528;2022-11-20T09:32:39;10.70;99.90
73360;DHT22;63092;43.582;19.528;2022-11-20T09:35:05;10.70;99.90
73360;DHT22;63092;43.582;19.528;2022-11-20T09:37:31;10.70;99.90
73360;DHT22;63092;43.582;19.528;2022-11-20T09:39:57;10.60;99.90
73360;DHT22;63092;43.582;19.528;2022-11-20T09:42:47;10.60;99.90
73360;DHT22;63092;43.582;19.528;2022-11-20T09:45:24;10.60;99.90
73360;DHT22;63092;43.582;19.528;2022-11-20T09:50:36;10.70;99.90
73360;DHT22;63092;43.582;19.528;2022-11-20T09:55:50;10.70;99.90
73360;DHT22;63092;43.582;19.528;2022-11-20T09:58:30;10.80;99.90
73360;DHT22;63092;43.582;19.528;2022-11-20T10:01:07;10.90;99.90
73360;DHT22;63092;43.582;19.528;2022-11-20T10:03:56;10.90;99.90
73360;DHT22;63092;43.582;19.528;2022-11-20T10:06:37;10.90;99.90
73360;DHT22;63092;43.582;19.528;2022-11-20T10:14:42;11.10;99.90
73360;DHT22;63092;43.582;19.528;2022-11-20T10:20:24;11.30;99.90
73360;DHT22;63092;43.582;19.528;2022-11-20T10:31:03;11.40;99.90
73360;DHT22;63092;43.582;19.528;2022-11-20T10:33:34;11.40;99.90
73360;DHT22;63092;43.582;19.528;2022-11-20T10:36:19;11.50;99.90
73360;DHT22;63092;43.582;19.528;2022-11-20T10:41:41;11.60;99.90
73360;DHT22;63092;43.582;19.528;2022-11-20T10:44:16;11.70;99.90
73360;DHT22;63092;43.582;19.528;2022-11-20T10:47:00;11.80;99.90
73360;DHT22;63092;43.582;19.528;2022-11-20T10:49:27;11.90;99.90
73360;DHT22;63092;43.582;19.528;2022-11-20T10:55:11;11.80;99.90
73360;DHT22;63092;43.582;19.528;2022-11-20T10:57:52;11.80;99.90
73360;DHT22;63092;43.582;19.528;2022-11-20T11:00:20;11.80;99.90
73360;DHT22;63092;43.582;19.528;2022-11-20T11:02:48;11.80;99.90
73360;DHT22;63092;43.582;19.528;2022-11-20T11:05:17;11.80;99.90
73360;DHT22;63092;43.582;19.528;2022-11-20T11:07:45;11.90;99.90
73360;DHT22;63092;43.582;19.528;2022-11-20T11:10:18;11.90;99.90
73360;DHT22;63092;43.582;19.528;2022-11-20T11:12:48;11.90;99.90
73360;DHT22;63092;43.582;19.528;2022-11-20T11:15:40;11.90;99.90
73360;DHT22;63092;43.582;19.528;2022-11-20T11:18:10;12.00;99.90
73360;DHT22;63092;43.582;19.528;2022-11-20T11:20:36;12.20;99.90
73360;DHT22;63092;43.582;19.528;2022-11-20T11:23:02;12.20;99.90
73360;DHT22;63092;43.582;19.528;2022-11-20T11:25:34;12.40;99.90
73360;DHT22;63092;43.582;19.528;2022-11-20T11:28:21;12.30;99.90
73360;DHT22;63092;43.582;19.528;2022-11-20T11:30:47;12.30;99.90
73360;DHT22;63092;43.582;19.528;2022-11-20T11:33:27;12.30;99.90
73360;DHT22;63092;43.582;19.528;2022-11-20T11:36:21;12.30;99.90
73360;DHT22;63092;43.582;19.528;2022-11-20T11:38:51;12.40;99.90
73360;DHT22;63092;43.582;19.528;2022-11-20T11:41:24;12.40;99.90
73360;DHT22;63092;43.582;19.528;2022-11-20T11:44:01;12.50;99.90
73360;DHT22;63092;43.582;19.528;2022-11-20T11:46:53;12.50;99.90
73360;DHT22;63092;43.582;19.528;2022-11-20T11:49:20;12.50;99.90
73360;DHT22;63092;43.582;19.528;2022-11-20T11:52:17;12.70;99.90
73360;DHT22;63092;43.582;19.528;2022-11-20T11:54:53;12.70;99.90
73360;DHT22;63092;43.582;19.528;2022-11-20T12:00:12;12.80;99.90
73360;DHT22;63092;43.582;19.528;2022-11-20T12:02:46;12.90;99.90
73360;DHT22;63092;43.582;19.528;2022-11-20T12:05:42;12.90;99.90
73360;DHT22;63092;43.582;19.528;2022-11-20T12:16:04;12.90;99.90
73360;DHT22;63092;43.582;19.528;2022-11-20T12:18:31;13.00;99.90
73360;DHT22;63092;43.582;19.528;2022-11-20T12:40:59;13.20;99.90
73360;DHT22;63092;43.582;19.528;2022-11-20T12:43:45;13.30;99.90
73360;DHT22;63092;43.582;19.528;2022-11-20T12:46:46;13.30;99.90
73360;DHT22;63092;43.582;19.528;2022-11-20T12:54:30;13.40;99.90
73360;DHT22;63092;43.582;19.528;2022-11-20T13:02:58;13.80;99.90
73360;DHT22;63092;43.582;19.528;2022-11-20T13:07:54;13.80;99.90
73360;DHT22;63092;43.582;19.528;2022-11-20T13:16:07;13.60;99.70
73360;DHT22;63092;43.582;19.528;2022-11-20T13:18:38;13.50;99.40
73360;DHT22;63092;43.582;19.528;2022-11-20T13:21:20;13.50;99.60
73360;DHT22;63092;43.582;19.528;2022-11-20T13:23:46;13.30;99.40
73360;DHT22;63092;43.582;19.528;2022-11-20T13:26:20;13.30;99.50
73360;DHT22;63092;43.582;19.528;2022-11-20T13:28:59;13.10;99.70
73360;DHT22;63092;43.582;19.528;2022-11-20T13:31:32;13.10;99.40
73360;DHT22;63092;43.582;19.528;2022-11-20T13:34:00;13.00;99.80
73360;DHT22;63092;43.582;19.528;2022-11-20T13:36:28;13.00;99.90
73360;DHT22;63092;43.582;19.528;2022-11-20T13:38:56;12.90;99.80
73360;DHT22;63092;43.582;19.528;2022-11-20T13:41:42;12.90;99.90
73360;DHT22;63092;43.582;19.528;2022-11-20T13:46:58;12.80;99.90
73360;DHT22;63092;43.582;19.528;2022-11-20T13:51:51;12.80;99.90
73360;DHT22;63092;43.582;19.528;2022-11-20T14:02:19;12.70;99.40
73360;DHT22;63092;43.582;19.528;2022-11-20T14:04:48;12.60;99.70
73360;DHT22;63092;43.582;19.528;2022-11-20T14:07:15;12.60;99.20
73360;DHT22;63092;43.582;19.528;2022-11-20T14:09:58;12.60;99.50
73360;DHT22;63092;43.582;19.528;2022-11-20T14:12:29;12.60;99.50
73360;DHT22;63092;43.582;19.528;2022-11-20T14:14:55;12.50;99.40
73360;DHT22;63092;43.582;19.528;2022-11-20T14:17:33;12.50;99.50
73360;DHT22;63092;43.582;19.528;2022-11-20T14:20:02;12.40;99.90
73360;DHT22;63092;43.582;19.528;2022-11-20T14:22:29;12.40;99.90
73360;DHT22;63092;43.582;19.528;2022-11-20T14:25:04;12.40;99.80
73360;DHT22;63092;43.582;19.528;2022-11-20T14:27:36;12.30;99.90
73360;DHT22;63092;43.582;19.528;2022-11-20T14:30:03;12.30;99.60
73360;DHT22;63092;43.582;19.528;2022-11-20T14:32:30;12.20;99.70
73360;DHT22;63092;43.582;19.528;2022-11-20T14:35:02;12.20;99.70
73360;DHT22;63092;43.582;19.528;2022-11-20T14:37:33;12.00;99.80
73360;DHT22;63092;43.582;19.528;2022-11-20T14:39:59;11.90;99.70
73360;DHT22;63092;43.582;19.528;2022-11-20T14:42:27;11.90;99.90
73360;DHT22;63092;43.582;19.528;2022-11-20T14:44:58;11.80;99.90
73360;DHT22;63092;43.582;19.528;2022-11-20T14:47:29;11.80;99.90
73360;DHT22;63092;43.582;19.528;2022-11-20T14:49:57;11.80;99.90
73360;DHT22;63092;43.582;19.528;2022-11-20T14:52:26;11.70;99.90
73360;DHT22;63092;43.582;19.528;2022-11-20T14:54:57;11.60;99.90
73360;DHT22;63092;43.582;19.528;2022-11-20T14:57:29;11.60;99.90
73360;DHT22;63092;43.582;19.528;2022-11-20T15:00:17;11.60;99.90
73360;DHT22;63092;43.582;19.528;2022-11-20T15:02:49;11.50;99.60
73360;DHT22;63092;43.582;19.528;2022-11-20T15:05:17;11.50;99.90
73360;DHT22;63092;43.582;19.528;2022-11-20T15:07:49;11.40;99.70
73360;DHT22;63092;43.582;19.528;2022-11-20T15:10:22;11.40;99.90
73360;DHT22;63092;43.582;19.528;2022-11-20T15:15:35;11.30;99.60
73360;DHT22;63092;43.582;19.528;2022-11-20T15:18:00;11.40;99.50
73360;DHT22;63092;43.582;19.528;2022-11-20T15:20:30;11.40;99.60
73360;DHT22;63092;43.582;19.528;2022-11-20T15:22:56;11.30;99.40
73360;DHT22;63092;43.582;19.528;2022-11-20T15:25:22;11.30;99.40
73360;DHT22;63092;43.582;19.528;2022-11-20T15:27:53;11.30;99.50
73360;DHT22;63092;43.582;19.528;2022-11-20T15:30:20;11.30;99.00
73360;DHT22;63092;43.582;19.528;2022-11-20T15:32:47;11.20;98.80
73360;DHT22;63092;43.582;19.528;2022-11-20T15:35:14;11.10;98.90
73360;DHT22;63092;43.582;19.528;2022-11-20T15:37:41;11.10;99.00
73360;DHT22;63092;43.582;19.528;2022-11-20T15:40:08;11.20;99.40
73360;DHT22;63092;43.582;19.528;2022-11-20T15:42:34;11.20;98.90
73360;DHT22;63092;43.582;19.528;2022-11-20T15:45:00;11.10;98.70
73360;DHT22;63092;43.582;19.528;2022-11-20T15:47:29;11.20;98.90
73360;DHT22;63092;43.582;19.528;2022-11-20T15:49:55;11.10;98.90
73360;DHT22;63092;43.582;19.528;2022-11-20T15:52:21;11.10;98.50
73360;DHT22;63092;43.582;19.528;2022-11-20T15:54:47;11.00;98.80
73360;DHT22;63092;43.582;19.528;2022-11-20T15:57:13;11.00;98.60
73360;DHT22;63092;43.582;19.528;2022-11-20T15:59:39;11.10;99.10
73360;DHT22;63092;43.582;19.528;2022-11-20T16:02:14;10.90;98.10
73360;DHT22;63092;43.582;19.528;2022-11-20T16:04:40;10.90;98.50
73360;DHT22;63092;43.582;19.528;2022-11-20T16:07:07;11.00;98.40
73360;DHT22;63092;43.582;19.528;2022-11-20T16:09:32;11.00;98.50
73360;DHT22;63092;43.582;19.528;2022-11-20T16:11:58;10.90;98.40
73360;DHT22;63092;43.582;19.528;2022-11-20T16:14:25;11.00;98.60
73360;DHT22;63092;43.582;19.528;2022-11-20T16:17:09;10.90;98.50
73360;DHT22;63092;43.582;19.528;2022-11-20T16:19:35;10.90;98.00
73360;DHT22;63092;43.582;19.528;2022-11-20T16:22:01;10.80;98.30
73360;DHT22;63092;43.582;19.528;2022-11-20T16:24:27;10.80;98.50
73360;DHT22;63092;43.582;19.528;2022-11-20T16:26:54;10.70;98.20
73360;DHT22;63092;43.582;19.528;2022-11-20T16:29:20;10.60;97.90
73360;DHT22;63092;43.582;19.528;2022-11-20T16:31:45;10.60;98.10
73360;DHT22;63092;43.582;19.528;2022-11-20T16:34:11;10.60;98.20
73360;DHT22;63092;43.582;19.528;2022-11-20T16:36:39;10.60;97.90
73360;DHT22;63092;43.582;19.528;2022-11-20T16:39:06;10.60;98.30
73360;DHT22;63092;43.582;19.528;2022-11-20T16:41:33;10.60;98.30
73360;DHT22;63092;43.582;19.528;2022-11-20T16:44:01;10.50;98.10
73360;DHT22;63092;43.582;19.528;2022-11-20T16:46:29;10.50;97.80
73360;DHT22;63092;43.582;19.528;2022-11-20T16:51:25;10.40;97.90
73360;DHT22;63092;43.582;19.528;2022-11-20T16:53:51;10.40;97.70
73360;DHT22;63092;43.582;19.528;2022-11-20T16:56:20;10.40;97.70
73360;DHT22;63092;43.582;19.528;2022-11-20T16:58:47;10.40;97.80
73360;DHT22;63092;43.582;19.528;2022-11-20T17:01:15;10.50;97.80
73360;DHT22;63092;43.582;19.528;2022-11-20T17:03:42;10.40;97.40
73360;DHT22;63092;43.582;19.528;2022-11-20T17:06:20;10.40;97.60
73360;DHT22;63092;43.582;19.528;2022-11-20T17:08:46;10.40;97.60
73360;DHT22;63092;43.582;19.528;2022-11-20T17:11:15;10.30;97.60
73360;DHT22;63092;43.582;19.528;2022-11-20T17:13:41;10.30;97.70